Time;durP1;ratioP1;P1;durP2;ratioP2;P2;SDS_P1;SDS_P2;PMS_P1;PMS_P2;Temp;Humidity;BMP_temperature;BMP_pressure;BME280_temperature;BME280_humidity;BME280_pressure;Samples;Min_cycle;Max_cycle;Signal;HPM_P1;HPM_P2
2022/12/04 00:00:12;;;;;;;27.77;19.07;;;4.20;99.90;;;;;;5098599;28;20528;-41
2022/12/04 00:02:38;;;;;;;28.57;20.60;;;4.30;99.90;;;;;;5097929;28;20179;-41
2022/12/04 00:05:05;;;;;;;26.73;19.47;;;4.30;99.90;;;;;;5079146;28;20470;-42
2022/12/04 00:07:31;;;;;;;28.00;19.90;;;4.30;99.90;;;;;;5080285;28;20913;-42
2022/12/04 00:09:56;;;;;;;32.30;21.07;;;4.30;99.90;;;;;;5080342;28;20844;-41
2022/12/04 00:12:23;;;;;;;25.73;18.23;;;4.30;99.90;;;;;;5099209;28;20192;-42
2022/12/04 00:14:48;;;;;;;29.43;20.57;;;4.30;99.90;;;;;;5098633;28;20421;-42
2022/12/04 00:17:14;;;;;;;27.70;19.20;;;4.30;99.90;;;;;;5099031;28;20419;-42
2022/12/04 00:19:40;;;;;;;29.13;20.10;;;4.30;99.90;;;;;;5080977;28;20743;-42
2022/12/04 00:22:06;;;;;;;35.33;21.60;;;4.30;99.90;;;;;;5098171;28;20180;-42
2022/12/04 00:24:32;;;;;;;27.17;20.80;;;4.30;99.90;;;;;;5081132;28;20274;-41
2022/12/04 00:26:58;;;;;;;31.23;20.03;;;4.30;99.90;;;;;;5080187;28;20509;-41
2022/12/04 00:29:23;;;;;;;30.30;20.00;;;4.30;99.90;;;;;;5098200;28;20556;-44
2022/12/04 00:31:49;;;;;;;29.23;20.80;;;4.30;99.90;;;;;;5098129;28;20455;-42
2022/12/04 00:34:15;;;;;;;30.73;20.33;;;4.30;1.00;;;;;;5099666;28;20168;-45
2022/12/04 00:36:41;;;;;;;32.73;22.40;;;4.30;1.00;;;;;;5099714;28;20558;-42
2022/12/04 00:39:07;;;;;;;34.33;20.97;;;4.30;1.00;;;;;;5081043;28;20429;-42
2022/12/04 00:41:32;;;;;;;32.33;22.20;;;4.30;1.00;;;;;;5098444;28;20176;-41
2022/12/04 00:43:59;;;;;;;30.80;22.20;;;4.30;1.00;;;;;;5097790;28;20209;-42
2022/12/04 00:46:25;;;;;;;34.80;24.10;;;4.30;1.00;;;;;;5063387;28;20183;-43
2022/12/04 00:48:51;;;;;;;33.60;22.27;;;4.30;1.00;;;;;;5099001;28;20426;-41
2022/12/04 00:51:22;;;;;;;30.63;21.77;;;4.30;1.00;;;;;;5098977;28;20429;-40
2022/12/04 00:53:49;;;;;;;36.17;24.13;;;4.30;1.00;;;;;;5117761;28;20426;-42
2022/12/04 00:56:17;;;;;;;36.70;25.03;;;4.30;1.00;;;;;;5118897;28;20424;-42
2022/12/04 00:58:46;;;;;;;33.40;22.03;;;4.30;1.00;;;;;;5118729;28;20681;-43
2022/12/04 01:01:14;;;;;;;34.07;22.43;;;4.30;1.00;;;;;;5117906;28;20912;-42
2022/12/04 01:03:40;;;;;;;29.60;22.43;;;4.30;1.00;;;;;;5100888;28;20465;-42
2022/12/04 01:06:07;;;;;;;31.33;22.90;;;4.30;1.00;;;;;;5085153;28;20422;-42
2022/12/04 01:08:34;;;;;;;37.83;23.77;;;4.30;1.00;;;;;;5101001;28;20493;-43
2022/12/04 01:11:04;;;;;;;36.20;23.00;;;4.30;1.00;;;;;;5107609;28;20469;-41
2022/12/04 01:13:30;;;;;;;33.43;22.50;;;4.30;1.00;;;;;;5118030;28;20171;-42
2022/12/04 01:15:55;;;;;;;31.13;22.50;;;4.30;1.00;;;;;;5117984;28;20425;-43
2022/12/04 01:18:21;;;;;;;32.10;21.90;;;4.30;1.00;;;;;;5115531;28;20176;-43
2022/12/04 01:20:49;;;;;;;31.33;22.00;;;4.30;1.00;;;;;;5115566;28;20178;-41
2022/12/04 01:23:16;;;;;;;30.50;22.30;;;4.30;1.00;;;;;;5113810;28;20237;-43
2022/12/04 01:25:52;;;;;;;36.20;23.77;;;4.30;1.00;;;;;;5112823;28;20458;-41
2022/12/04 01:28:18;;;;;;;32.63;22.37;;;4.30;1.00;;;;;;5113335;28;20891;-42
2022/12/04 01:30:44;;;;;;;30.27;21.10;;;4.30;1.00;;;;;;5115464;28;20417;-40
2022/12/04 01:33:09;;;;;;;31.73;22.07;;;4.30;1.00;;;;;;5115750;28;20410;-41
2022/12/04 01:35:35;;;;;;;29.50;21.37;;;4.30;1.00;;;;;;5119111;28;20202;-41
2022/12/04 01:38:01;;;;;;;36.10;23.00;;;4.30;1.00;;;;;;5117225;28;20588;-41
2022/12/04 01:40:27;;;;;;;32.83;22.50;;;4.30;1.00;;;;;;5101544;28;20206;-42
2022/12/04 01:42:52;;;;;;;32.47;21.67;;;4.30;1.00;;;;;;5117486;28;20425;-42
2022/12/04 01:45:37;;;;;;;30.30;22.57;;;4.30;1.00;;;;;;5118415;28;20271;-42
2022/12/04 01:48:10;;;;;;;28.00;21.10;;;4.30;1.00;;;;;;5100641;28;20191;-41
2022/12/04 01:50:36;;;;;;;29.87;21.17;;;4.30;1.00;;;;;;5117641;28;20402;-41
2022/12/04 01:53:01;;;;;;;28.80;20.83;;;4.30;1.00;;;;;;5117356;28;20838;-43
2022/12/04 01:55:28;;;;;;;29.00;21.47;;;4.30;1.00;;;;;;5099400;28;20428;-41
2022/12/04 01:57:55;;;;;;;27.47;20.43;;;4.30;1.00;;;;;;5118841;28;20176;-43
2022/12/04 02:00:21;;;;;;;30.10;21.63;;;4.30;1.00;;;;;;5117324;28;20425;-41
2022/12/04 02:02:47;;;;;;;29.23;20.70;;;4.30;1.00;;;;;;5116251;28;20425;-42
2022/12/04 02:05:16;;;;;;;28.40;21.77;;;4.30;1.00;;;;;;5116468;28;20203;-41
2022/12/04 02:07:42;;;;;;;25.90;19.03;;;4.30;1.00;;;;;;5117034;27;20421;-44
2022/12/04 02:10:09;;;;;;;30.33;22.20;;;4.30;1.00;;;;;;5115086;28;20494;-42
2022/12/04 02:12:43;;;;;;;28.50;20.83;;;4.30;99.90;;;;;;5114984;28;20440;-43
2022/12/04 02:15:18;;;;;;;30.23;20.00;;;4.20;99.90;;;;;;5115209;28;20449;-42
2022/12/04 02:17:55;;;;;;;26.20;18.77;;;4.20;1.00;;;;;;5114377;28;20862;-41
2022/12/04 02:20:33;;;;;;;26.77;20.60;;;4.20;1.00;;;;;;5117079;28;20422;-41
2022/12/04 02:23:21;;;;;;;28.77;20.60;;;4.20;1.00;;;;;;5117357;28;20424;-42
2022/12/04 02:25:56;;;;;;;29.80;21.27;;;4.20;1.00;;;;;;5117802;28;20417;-42
2022/12/04 02:28:39;;;;;;;26.20;19.63;;;4.20;1.00;;;;;;5116682;28;20436;-41
2022/12/04 02:31:17;;;;;;;28.40;21.00;;;4.20;1.00;;;;;;5100250;28;20540;-43
2022/12/04 02:33:53;;;;;;;29.00;21.33;;;4.20;1.00;;;;;;5116312;28;20421;-42
2022/12/04 02:36:22;;;;;;;26.43;20.13;;;4.20;1.00;;;;;;5115477;28;20517;-42
2022/12/04 02:38:54;;;;;;;28.70;22.20;;;4.20;1.00;;;;;;5116791;28;20873;-42
2022/12/04 02:41:41;;;;;;;29.67;20.97;;;4.20;1.00;;;;;;5098747;28;20429;-42
2022/12/04 02:44:14;;;;;;;27.50;20.37;;;4.20;1.00;;;;;;5115935;28;20465;-42
2022/12/04 02:46:44;;;;;;;27.30;20.90;;;4.20;1.00;;;;;;5115779;28;20678;-41
2022/12/04 02:49:47;;;;;;;30.53;21.63;;;4.20;1.00;;;;;;5114427;28;20700;-42
2022/12/04 02:52:16;;;;;;;29.10;21.03;;;4.20;1.00;;;;;;5095644;28;20430;-43
2022/12/04 02:54:46;;;;;;;25.50;20.30;;;4.20;1.00;;;;;;5115706;28;20537;-44
2022/12/04 02:57:17;;;;;;;28.53;21.70;;;4.20;1.00;;;;;;5117308;28;20490;-42
2022/12/04 02:59:44;;;;;;;25.53;20.00;;;4.20;1.00;;;;;;5116895;28;20421;-41
2022/12/04 03:02:15;;;;;;;30.73;21.87;;;4.20;99.90;;;;;;5116888;28;20494;-46
2022/12/04 03:04:41;;;;;;;28.57;21.57;;;4.20;99.90;;;;;;5100095;28;20981;-42
2022/12/04 03:07:14;;;;;;;25.63;19.70;;;4.20;99.90;;;;;;5116160;28;20505;-42
2022/12/04 03:09:42;;;;;;;29.23;22.00;;;4.20;1.00;;;;;;5116549;28;20183;-42
2022/12/04 03:12:13;;;;;;;26.40;20.37;;;4.20;1.00;;;;;;5099702;28;20498;-42
2022/12/04 03:14:45;;;;;;;27.47;20.63;;;4.20;1.00;;;;;;5118393;28;20785;-42
2022/12/04 03:17:19;;;;;;;29.17;22.10;;;4.20;1.00;;;;;;5101927;28;20459;-42
2022/12/04 03:19:49;;;;;;;28.90;20.97;;;4.20;1.00;;;;;;5086621;28;20464;-42
2022/12/04 03:22:17;;;;;;;30.33;21.10;;;4.20;1.00;;;;;;5102598;28;20418;-44
2022/12/04 03:24:47;;;;;;;30.90;21.43;;;4.20;1.00;;;;;;5084647;28;20937;-42
2022/12/04 03:27:16;;;;;;;32.00;21.80;;;4.20;1.00;;;;;;5119439;28;20421;-41
2022/12/04 03:29:57;;;;;;;25.67;20.67;;;4.20;1.00;;;;;;5118616;28;20469;-41
2022/12/04 03:32:33;;;;;;;29.97;21.03;;;4.20;1.00;;;;;;5118089;28;20673;-43
2022/12/04 03:35:08;;;;;;;29.50;21.40;;;4.20;1.00;;;;;;5100686;28;20421;-43
2022/12/04 03:37:55;;;;;;;27.77;20.20;;;4.20;1.00;;;;;;5119586;28;20427;-45
2022/12/04 03:40:25;;;;;;;30.03;20.80;;;4.20;1.00;;;;;;5086327;28;20440;-43
2022/12/04 03:43:05;;;;;;;31.57;20.00;;;4.20;1.00;;;;;;5103150;28;20471;-43
2022/12/04 03:45:57;;;;;;;27.60;18.73;;;4.20;1.00;;;;;;5102301;28;20465;-42
2022/12/04 03:48:28;;;;;;;27.07;20.00;;;4.10;1.00;;;;;;5120932;28;20449;-44
2022/12/04 03:51:01;;;;;;;26.00;18.10;;;4.10;1.00;;;;;;5103482;28;20417;-43
2022/12/04 03:53:37;;;;;;;28.20;18.33;;;4.20;1.00;;;;;;5120224;28;20420;-43
2022/12/04 03:56:32;;;;;;;27.87;19.70;;;4.10;1.00;;;;;;5120777;28;20435;-42
2022/12/04 03:59:26;;;;;;;25.50;18.63;;;4.10;1.00;;;;;;5114748;28;20490;-43
2022/12/04 04:01:54;;;;;;;24.20;17.40;;;4.10;1.00;;;;;;5116962;28;20783;-42
2022/12/04 04:04:27;;;;;;;26.27;16.73;;;4.10;1.00;;;;;;5119301;28;20464;-43
2022/12/04 04:06:58;;;;;;;25.23;17.10;;;4.10;1.00;;;;;;5102725;28;20513;-42
2022/12/04 04:09:25;;;;;;;23.70;17.40;;;4.10;1.00;;;;;;5119791;28;20460;-42
2022/12/04 04:11:56;;;;;;;23.70;17.13;;;4.10;1.00;;;;;;5117443;28;20883;-44
2022/12/04 04:25:41;;;;;;;22.67;16.40;;;4.10;1.00;;;;;;5118671;28;20468;-43
2022/12/04 04:28:27;;;;;;;24.00;15.67;;;4.10;1.00;;;;;;5117832;28;20413;-43
2022/12/04 04:30:57;;;;;;;21.17;15.97;;;4.10;1.00;;;;;;5117909;28;20715;-41
2022/12/04 04:33:23;;;;;;;21.80;15.57;;;4.10;1.00;;;;;;5118882;28;20409;-41
2022/12/04 04:36:27;;;;;;;20.13;14.93;;;4.10;1.00;;;;;;5120491;28;20428;-42
2022/12/04 04:39:24;;;;;;;19.70;14.90;;;4.10;1.00;;;;;;5120006;28;20498;-42
2022/12/04 04:41:54;;;;;;;20.40;14.87;;;4.10;1.00;;;;;;5118499;28;20727;-42
2022/12/04 04:44:24;;;;;;;20.93;14.70;;;4.10;1.00;;;;;;5118509;28;20473;-43
2022/12/04 04:46:52;;;;;;;19.17;14.43;;;4.10;1.00;;;;;;5119900;28;20402;-42
2022/12/04 04:49:19;;;;;;;20.37;14.47;;;4.10;99.90;;;;;;5119476;28;20425;-43
2022/12/04 04:51:46;;;;;;;21.53;15.30;;;4.10;99.90;;;;;;5116354;28;20647;-44
2022/12/04 04:54:12;;;;;;;18.17;13.13;;;4.10;99.90;;;;;;5117704;28;20430;-42
2022/12/04 04:56:40;;;;;;;20.83;13.70;;;4.10;99.90;;;;;;5118288;28;20647;-44
2022/12/04 04:59:06;;;;;;;18.83;13.43;;;4.10;99.90;;;;;;5118905;28;20512;-42
2022/12/04 05:01:31;;;;;;;21.70;15.10;;;4.10;99.90;;;;;;5118829;28;20453;-41
2022/12/04 05:03:57;;;;;;;23.20;15.13;;;4.10;99.90;;;;;;5118632;28;20199;-43
2022/12/04 05:06:23;;;;;;;19.13;14.50;;;4.10;99.90;;;;;;5119743;28;20202;-41
2022/12/04 05:08:48;;;;;;;20.87;14.83;;;4.10;99.90;;;;;;5119675;28;20180;-43
2022/12/04 05:11:15;;;;;;;18.87;14.57;;;4.10;99.90;;;;;;5119467;28;20616;-42
2022/12/04 05:13:41;;;;;;;20.60;14.17;;;4.10;99.90;;;;;;5118774;28;20403;-42
2022/12/04 05:16:10;;;;;;;20.10;13.40;;;4.10;99.90;;;;;;5119197;28;20425;-42
2022/12/04 05:18:36;;;;;;;18.37;13.23;;;4.10;99.90;;;;;;5119243;28;20460;-44
2022/12/04 05:21:16;;;;;;;20.10;14.27;;;4.10;99.90;;;;;;5119193;28;20453;-43
2022/12/04 05:23:42;;;;;;;18.93;14.67;;;4.10;99.90;;;;;;5119170;28;20299;-42
2022/12/04 05:26:09;;;;;;;21.30;14.73;;;4.10;99.90;;;;;;5118523;28;20839;-41
2022/12/04 05:28:35;;;;;;;18.83;13.97;;;4.10;99.90;;;;;;5118565;28;20530;-40
2022/12/04 05:31:02;;;;;;;18.07;14.10;;;4.10;99.90;;;;;;5118380;28;20448;-40
2022/12/04 05:33:28;;;;;;;18.50;12.80;;;4.10;99.90;;;;;;5100767;28;20229;-41
2022/12/04 05:36:02;;;;;;;18.00;13.00;;;4.10;99.90;;;;;;5118379;28;20841;-40
2022/12/04 05:38:28;;;;;;;18.03;13.40;;;4.10;99.90;;;;;;5117831;28;20532;-41
2022/12/04 05:40:54;;;;;;;19.20;13.87;;;4.10;99.90;;;;;;5118343;28;20504;-41
2022/12/04 05:43:19;;;;;;;21.07;14.80;;;4.10;99.90;;;;;;5099742;28;20275;-41
2022/12/04 05:45:45;;;;;;;19.30;13.13;;;4.10;99.90;;;;;;5117885;28;20214;-42
2022/12/04 05:48:10;;;;;;;18.07;12.93;;;4.10;99.90;;;;;;5118168;28;20271;-42
2022/12/04 05:50:37;;;;;;;16.10;13.13;;;4.10;99.90;;;;;;5117314;28;20520;-43
2022/12/04 05:53:03;;;;;;;20.33;14.37;;;4.00;99.90;;;;;;5116918;28;20434;-42
2022/12/04 05:55:29;;;;;;;16.60;12.77;;;4.00;99.90;;;;;;5116985;28;20421;-41
2022/12/04 05:57:54;;;;;;;17.53;12.10;;;4.00;99.90;;;;;;5098621;28;20210;-40
2022/12/04 06:00:20;;;;;;;18.47;12.63;;;4.00;99.90;;;;;;5099176;28;20214;-41
2022/12/04 06:02:45;;;;;;;17.53;12.83;;;4.00;99.90;;;;;;5116873;28;20528;-40
2022/12/04 06:05:11;;;;;;;18.70;12.20;;;4.10;99.90;;;;;;5116385;28;20211;-42
2022/12/04 06:07:37;;;;;;;16.87;12.40;;;4.00;99.90;;;;;;5118039;28;20172;-40
2022/12/04 06:10:03;;;;;;;18.63;12.30;;;4.10;99.90;;;;;;5118059;28;20219;-41
2022/12/04 06:12:29;;;;;;;15.00;12.40;;;4.10;99.90;;;;;;5117039;28;20233;-43
2022/12/04 06:15:08;;;;;;;18.30;12.83;;;4.00;99.90;;;;;;5118936;28;20520;-43
2022/12/04 06:17:57;;;;;;;16.13;11.50;;;4.00;99.90;;;;;;5100148;28;20668;-41
2022/12/04 06:20:23;;;;;;;20.40;14.03;;;4.00;99.90;;;;;;5100424;28;20488;-43
2022/12/04 06:22:48;;;;;;;18.40;12.17;;;4.00;99.90;;;;;;5117750;28;20505;-41
2022/12/04 06:25:14;;;;;;;17.87;12.10;;;4.00;99.90;;;;;;5116559;28;20215;-40
2022/12/04 06:27:39;;;;;;;17.07;12.63;;;4.00;99.90;;;;;;5118584;28;20202;-43
2022/12/04 06:30:06;;;;;;;17.53;12.70;;;4.00;99.90;;;;;;5117666;28;20226;-43
2022/12/04 06:32:31;;;;;;;15.97;11.20;;;4.00;99.90;;;;;;5116011;28;20176;-43
2022/12/04 06:34:57;;;;;;;18.10;12.63;;;4.00;99.90;;;;;;5117323;28;20816;-41
2022/12/04 06:37:24;;;;;;;15.70;12.20;;;4.00;99.90;;;;;;5117911;28;20179;-41
2022/12/04 06:39:49;;;;;;;16.20;12.40;;;4.00;99.90;;;;;;5117631;28;20272;-44
2022/12/04 06:42:15;;;;;;;20.13;13.83;;;4.00;99.90;;;;;;5117695;28;20456;-40
2022/12/04 06:44:41;;;;;;;19.70;14.60;;;4.10;99.90;;;;;;5117638;28;20211;-41
2022/12/04 06:47:07;;;;;;;17.57;13.97;;;4.10;99.90;;;;;;5118107;28;21422;-42
2022/12/04 06:49:33;;;;;;;17.80;12.83;;;4.10;99.90;;;;;;5117944;28;20175;-41
2022/12/04 06:51:59;;;;;;;18.20;13.27;;;4.10;99.90;;;;;;5121986;28;20409;-42
2022/12/04 06:54:25;;;;;;;19.83;13.30;;;4.10;99.90;;;;;;5122345;28;20182;-42
2022/12/04 06:56:50;;;;;;;17.07;12.53;;;4.10;99.90;;;;;;5121602;28;20199;-43
2022/12/04 06:59:16;;;;;;;17.20;13.33;;;4.10;99.90;;;;;;5121135;28;20776;-42
2022/12/04 07:01:42;;;;;;;18.30;13.93;;;4.10;1.00;;;;;;5122509;28;20191;-43
2022/12/04 07:04:07;;;;;;;17.27;12.43;;;4.10;1.00;;;;;;5120900;28;20233;-43
2022/12/04 07:06:37;;;;;;;19.67;13.17;;;4.10;1.00;;;;;;5121788;28;20530;-41
2022/12/04 07:09:11;;;;;;;18.60;14.00;;;4.10;1.00;;;;;;5104006;28;20206;-41
2022/12/04 07:11:38;;;;;;;18.10;13.50;;;4.10;1.00;;;;;;5119632;28;20743;-41
2022/12/04 07:14:04;;;;;;;17.63;12.50;;;4.20;1.00;;;;;;5119451;28;20425;-41
2022/12/04 07:16:30;;;;;;;19.63;13.70;;;4.10;1.00;;;;;;5120102;28;20565;-41
2022/12/04 07:18:56;;;;;;;19.10;14.83;;;4.20;99.90;;;;;;5119719;28;20866;-40
2022/12/04 07:21:24;;;;;;;20.40;13.33;;;4.20;99.90;;;;;;5119638;28;20413;-44
2022/12/04 07:23:52;;;;;;;18.00;13.57;;;4.20;99.90;;;;;;5119483;28;20819;-41
2022/12/04 07:26:18;;;;;;;20.30;12.90;;;4.20;99.90;;;;;;5119974;28;20696;-41
2022/12/04 07:28:44;;;;;;;20.63;14.17;;;4.20;99.90;;;;;;5120397;28;20421;-41
2022/12/04 07:31:16;;;;;;;19.70;13.57;;;4.20;1.00;;;;;;5121332;28;20420;-41
2022/12/04 07:33:43;;;;;;;20.33;13.90;;;4.20;1.00;;;;;;5121177;28;20720;-42
2022/12/04 07:36:11;;;;;;;17.47;13.53;;;4.20;1.00;;;;;;5121034;28;20402;-44
2022/12/04 07:38:36;;;;;;;19.17;12.90;;;4.20;1.00;;;;;;5102453;28;20422;-41
2022/12/04 07:41:04;;;;;;;19.30;13.47;;;4.20;1.00;;;;;;5120803;28;20431;-47
2022/12/04 07:43:30;;;;;;;19.70;12.67;;;4.20;1.00;;;;;;5119767;28;20169;-43
2022/12/04 07:45:57;;;;;;;18.80;13.80;;;4.20;1.00;;;;;;5103142;28;20453;-42
2022/12/04 07:48:23;;;;;;;17.43;13.00;;;4.30;1.00;;;;;;5119674;28;20826;-42
2022/12/04 07:50:49;;;;;;;18.63;13.40;;;4.30;99.90;;;;;;5101471;28;20479;-43
2022/12/04 07:53:14;;;;;;;20.77;13.30;;;4.30;99.90;;;;;;5119447;28;20481;-43
2022/12/04 07:55:41;;;;;;;18.00;12.80;;;4.30;99.90;;;;;;5118854;28;20364;-42
2022/12/04 07:58:06;;;;;;;19.87;14.97;;;4.30;99.90;;;;;;5120153;28;20183;-42
2022/12/04 08:00:32;;;;;;;18.17;12.93;;;4.30;99.90;;;;;;5102969;28;20417;-44
2022/12/04 08:02:57;;;;;;;18.10;12.50;;;4.40;99.90;;;;;;5121385;28;20184;-42
2022/12/04 08:05:23;;;;;;;22.33;15.17;;;4.40;99.90;;;;;;5120593;28;20203;-43
2022/12/04 08:07:49;;;;;;;18.43;12.90;;;4.40;99.90;;;;;;5120589;28;20255;-42
2022/12/04 08:10:14;;;;;;;21.00;15.40;;;4.40;99.90;;;;;;5104147;28;20311;-42
2022/12/04 08:12:40;;;;;;;20.73;15.27;;;4.40;99.90;;;;;;5119636;28;20168;-41
2022/12/04 08:15:07;;;;;;;18.77;13.50;;;4.40;99.90;;;;;;5118841;28;20180;-42
2022/12/04 08:17:32;;;;;;;18.33;14.10;;;4.50;99.90;;;;;;5119113;28;20244;-41
2022/12/04 08:19:58;;;;;;;19.43;13.50;;;4.50;99.90;;;;;;5119367;28;20406;-42
2022/12/04 08:22:23;;;;;;;20.57;14.97;;;4.50;99.90;;;;;;5117210;28;20419;-43
2022/12/04 08:24:49;;;;;;;22.03;13.40;;;4.50;99.90;;;;;;5118775;28;20211;-42
2022/12/04 08:27:15;;;;;;;21.10;14.50;;;4.50;99.90;;;;;;5118343;28;20562;-40
2022/12/04 08:29:41;;;;;;;20.47;14.40;;;4.50;99.90;;;;;;5118937;28;20430;-41
2022/12/04 08:32:07;;;;;;;21.30;14.27;;;4.60;99.90;;;;;;5116571;28;20409;-41
2022/12/04 08:34:32;;;;;;;20.27;14.40;;;4.60;99.90;;;;;;5115977;28;20187;-41
2022/12/04 08:36:58;;;;;;;19.07;13.50;;;4.60;99.90;;;;;;5116059;28;20187;-42
2022/12/04 08:39:24;;;;;;;22.13;15.50;;;4.60;99.90;;;;;;5117061;28;20183;-42
2022/12/04 08:41:50;;;;;;;20.40;14.20;;;4.60;99.90;;;;;;5116309;28;20180;-41
2022/12/04 08:44:16;;;;;;;22.00;15.10;;;4.60;99.90;;;;;;5115346;28;20480;-43
2022/12/04 08:46:41;;;;;;;19.50;13.43;;;4.60;99.90;;;;;;5116616;28;20255;-41
2022/12/04 08:49:07;;;;;;;21.60;15.07;;;4.60;99.90;;;;;;5117454;28;20175;-42
2022/12/04 08:51:35;;;;;;;17.47;14.07;;;4.70;99.90;;;;;;5116726;28;20542;-42
2022/12/04 08:54:05;;;;;;;18.87;13.97;;;4.70;99.90;;;;;;5115107;28;20229;-42
2022/12/04 08:56:31;;;;;;;18.90;13.87;;;4.70;99.90;;;;;;5115098;28;20417;-42
2022/12/04 08:58:57;;;;;;;21.20;15.40;;;4.70;99.90;;;;;;5098089;28;20426;-42
2022/12/04 09:01:27;;;;;;;19.77;14.53;;;4.70;99.90;;;;;;5114447;28;20509;-41
2022/12/04 09:03:53;;;;;;;19.27;14.73;;;4.80;99.90;;;;;;5114390;28;20557;-42
2022/12/04 09:06:18;;;;;;;20.27;15.13;;;4.80;99.90;;;;;;5116989;28;20926;-44
2022/12/04 09:08:44;;;;;;;21.37;14.53;;;4.80;99.90;;;;;;5118388;28;20176;-42
2022/12/04 09:11:13;;;;;;;23.90;15.33;;;4.80;99.90;;;;;;5105011;28;20224;-41
2022/12/04 09:13:39;;;;;;;20.77;13.73;;;4.90;99.90;;;;;;5095478;28;20323;-40
2022/12/04 09:16:07;;;;;;;21.10;15.20;;;4.90;99.90;;;;;;5097046;28;20410;-44
2022/12/04 09:18:34;;;;;;;19.77;13.47;;;4.90;99.90;;;;;;5096704;28;20418;-44
2022/12/04 09:21:02;;;;;;;21.50;14.63;;;4.90;99.90;;;;;;5097929;28;20534;-41
2022/12/04 09:23:28;;;;;;;19.93;15.30;;;4.90;99.90;;;;;;5061691;28;20414;-44
2022/12/04 09:25:54;;;;;;;17.97;12.27;;;5.00;99.90;;;;;;5095151;28;20576;-42
2022/12/04 09:28:20;;;;;;;21.07;15.13;;;5.00;93.00;;;;;;5094730;28;20686;-42
2022/12/04 09:30:58;;;;;;;18.90;14.27;;;5.00;90.10;;;;;;5094414;28;20186;-41
2022/12/04 09:33:23;;;;;;;19.60;13.93;;;5.00;52.50;;;;;;5094153;28;20423;-43
2022/12/04 09:35:49;;;;;;;20.10;13.23;;;5.10;28.20;;;;;;5076371;28;20414;-42
2022/12/04 09:38:15;;;;;;;21.63;14.50;;;5.10;25.20;;;;;;5096910;28;20592;-42
2022/12/04 09:41:09;;;;;;;18.27;12.83;;;5.10;28.20;;;;;;5094811;28;20184;-41
2022/12/04 09:43:56;;;;;;;18.60;12.80;;;5.10;32.70;;;;;;5082182;28;20606;-41
2022/12/04 09:46:30;;;;;;;18.83;13.20;;;5.20;19.70;;;;;;5095465;28;20928;-40
2022/12/04 09:48:57;;;;;;;19.63;14.20;;;5.20;13.60;;;;;;5061457;28;20458;-40
2022/12/04 09:51:25;;;;;;;20.43;14.33;;;5.20;1.00;;;;;;5095591;28;20499;-43
2022/12/04 09:53:55;;;;;;;17.50;13.33;;;5.20;1.00;;;;;;5096096;28;20415;-42
2022/12/04 09:56:22;;;;;;;18.90;15.30;;;5.30;1.00;;;;;;5079694;28;20446;-41
2022/12/04 09:58:59;;;;;;;18.87;13.20;;;5.30;1.00;;;;;;5062618;28;20526;-40
2022/12/04 10:01:54;;;;;;;18.10;13.23;;;5.30;1.00;;;;;;5061983;28;20430;-43
2022/12/04 10:04:20;;;;;;;18.47;12.00;;;5.40;1.00;;;;;;5095599;28;20528;-42
2022/12/04 10:07:01;;;;;;;18.87;13.33;;;5.40;1.00;;;;;;5096215;28;20446;-40
2022/12/04 10:09:48;;;;;;;18.40;12.83;;;5.40;1.00;;;;;;5095892;28;20179;-42
2022/12/04 10:12:17;;;;;;;17.70;12.17;;;5.40;1.00;;;;;;5078324;28;20469;-41
2022/12/04 10:14:56;;;;;;;17.83;13.13;;;5.50;1.00;;;;;;5095405;28;20421;-43
2022/12/04 10:17:44;;;;;;;19.03;12.80;;;5.40;1.00;;;;;;5088352;28;20417;-44
2022/12/04 10:20:21;;;;;;;19.27;13.50;;;5.50;1.00;;;;;;5114556;28;20417;-42
2022/12/04 10:23:21;;;;;;;17.33;12.17;;;5.50;1.00;;;;;;5114702;28;20880;-43
2022/12/04 10:25:51;;;;;;;20.43;13.17;;;5.50;1.00;;;;;;5115411;28;20798;-44
2022/12/04 10:28:38;;;;;;;17.93;13.03;;;5.50;1.00;;;;;;5097904;28;20422;-43
2022/12/04 10:31:05;;;;;;;21.30;14.17;;;5.50;1.00;;;;;;5117390;28;20997;-41
2022/12/04 10:33:51;;;;;;;18.83;13.80;;;5.50;1.00;;;;;;5097981;28;20413;-43
2022/12/04 10:36:19;;;;;;;17.63;13.37;;;5.50;1.00;;;;;;5116140;28;20416;-42
2022/12/04 10:38:45;;;;;;;18.03;13.37;;;5.50;1.00;;;;;;5098582;28;20507;-44
2022/12/04 10:41:24;;;;;;;18.53;13.83;;;5.60;1.00;;;;;;5116711;28;20421;-44
2022/12/04 10:43:50;;;;;;;18.43;14.03;;;5.60;1.00;;;;;;5115454;28;20259;-43
2022/12/04 10:46:28;;;;;;;17.07;12.40;;;5.60;1.00;;;;;;5115882;28;20402;-42
2022/12/04 10:49:05;;;;;;;17.07;13.17;;;5.60;1.00;;;;;;5098308;28;20425;-43
2022/12/04 10:51:40;;;;;;;18.10;13.37;;;5.60;1.00;;;;;;5117655;28;20417;-43
2022/12/04 10:54:11;;;;;;;16.10;11.77;;;5.60;1.00;;;;;;5117059;28;20437;-43
2022/12/04 10:56:49;;;;;;;7.70;5.50;;;5.60;1.00;;;;;;5116346;28;20429;-48
2022/12/04 10:59:15;;;;;;;11.17;8.20;;;7.00;1.00;;;;;;5114621;28;20425;-50
2022/12/04 11:01:40;;;;;;;15.80;10.30;;;8.80;1.00;;;;;;5096562;28;20414;-47
2022/12/04 11:04:20;;;;;;;14.13;9.90;;;10.00;1.00;;;;;;5080184;28;20243;-41
2022/12/04 11:06:48;;;;;;;13.90;10.17;;;10.70;1.00;;;;;;5098012;28;20172;-42
2022/12/04 11:09:23;;;;;;;15.47;11.40;;;10.90;1.00;;;;;;5096757;28;20822;-42
2022/12/04 11:11:49;;;;;;;17.57;14.87;;;10.70;1.00;;;;;;5111924;28;20492;-43
2022/12/04 11:14:21;;;;;;;17.17;13.77;;;10.30;99.90;;;;;;5113942;28;20999;-44
2022/12/04 11:16:49;;;;;;;19.17;14.93;;;9.90;69.30;;;;;;5114753;28;20409;-43
2022/12/04 11:19:22;;;;;;;18.07;13.37;;;9.40;99.90;;;;;;5115207;28;20474;-46
2022/12/04 11:21:48;;;;;;;18.20;14.10;;;8.90;99.90;;;;;;5115171;28;20418;-42
2022/12/04 11:24:24;;;;;;;21.93;15.23;;;8.50;99.90;;;;;;5116057;28;20539;-43
2022/12/04 11:26:51;;;;;;;18.43;14.50;;;8.10;1.00;;;;;;5117529;28;20405;-42
2022/12/04 11:29:18;;;;;;;19.40;14.67;;;7.90;95.70;;;;;;5115042;28;20417;-44
2022/12/04 11:31:48;;;;;;;16.33;14.63;;;7.60;1.00;;;;;;5114986;28;20439;-41
2022/12/04 11:34:19;;;;;;;18.10;14.90;;;7.40;99.90;;;;;;5114667;28;20471;-42
2022/12/04 11:36:51;;;;;;;19.00;14.57;;;7.20;99.90;;;;;;5116988;28;20423;-42
2022/12/04 11:39:35;;;;;;;19.67;14.80;;;7.00;41.00;;;;;;5117822;28;20433;-44
2022/12/04 11:42:18;;;;;;;19.63;15.90;;;6.90;1.00;;;;;;5118578;28;20474;-41
2022/12/04 11:45:21;;;;;;;21.20;16.10;;;6.80;1.00;;;;;;5119616;27;20553;-42
2022/12/04 11:47:55;;;;;;;19.80;14.90;;;6.70;1.00;;;;;;5120023;28;20413;-41
2022/12/04 11:50:53;;;;;;;20.03;15.17;;;6.60;1.00;;;;;;5117623;28;20520;-41
2022/12/04 11:53:33;;;;;;;21.67;15.30;;;6.50;99.90;;;;;;5116276;28;20412;-46
2022/12/04 11:56:25;;;;;;;21.30;15.07;;;6.40;99.90;;;;;;5117842;28;20420;-41
2022/12/04 11:59:29;;;;;;;20.10;15.60;;;6.40;99.90;;;;;;5118771;28;20421;-42
2022/12/04 12:01:58;;;;;;;23.27;15.60;;;6.30;99.90;;;;;;5057654;28;20833;-41
2022/12/04 12:04:32;;;;;;;19.30;14.70;;;6.30;99.90;;;;;;5074770;28;20881;-45
2022/12/04 12:07:37;;;;;;;19.17;14.83;;;6.30;99.90;;;;;;5097617;28;20485;-45
2022/12/04 12:10:06;;;;;;;23.23;15.90;;;6.20;99.90;;;;;;5119139;28;20460;-43
2022/12/04 12:12:55;;;;;;;21.17;16.27;;;6.20;99.90;;;;;;5100342;28;20661;-40
2022/12/04 12:15:30;;;;;;;22.50;17.60;;;6.20;99.90;;;;;;5118884;28;20491;-42
2022/12/04 12:18:23;;;;;;;21.30;16.17;;;6.20;99.90;;;;;;5118589;28;20459;-42
2022/12/04 12:21:13;;;;;;;21.30;16.00;;;6.20;99.90;;;;;;5116222;28;20409;-41
2022/12/04 12:24:03;;;;;;;11.63;7.73;;;6.20;99.90;;;;;;5118092;28;20421;-47
2022/12/04 12:26:56;;;;;;;13.70;9.57;;;7.90;1.00;;;;;;5118027;28;20842;-49
2022/12/04 12:29:27;;;;;;;14.37;10.97;;;9.20;1.00;;;;;;5103081;28;20953;-49
2022/12/04 12:32:05;;;;;;;13.50;9.60;;;10.20;1.00;;;;;;5118310;28;20406;-48
2022/12/04 12:34:34;;;;;;;11.53;9.37;;;10.70;1.00;;;;;;5118206;28;20428;-41
2022/12/04 12:37:24;;;;;;;12.13;10.23;;;11.30;1.00;;;;;;5117962;28;20699;-42
2022/12/04 12:40:03;;;;;;;17.17;14.33;;;11.50;99.90;;;;;;5106954;28;20516;-45
2022/12/04 12:42:43;;;;;;;17.90;15.40;;;11.20;1.00;;;;;;5118263;28;20417;-42
2022/12/04 12:45:34;;;;;;;19.40;16.37;;;10.70;1.00;;;;;;5083201;28;20508;-43
2022/12/04 12:48:11;;;;;;;20.93;17.27;;;10.20;1.00;;;;;;5115856;28;20436;-42
2022/12/04 12:50:54;;;;;;;18.37;16.47;;;9.60;2.40;;;;;;5116704;28;20735;-41
2022/12/04 12:53:24;;;;;;;20.33;16.93;;;9.10;1.00;;;;;;5118463;28;20410;-40
2022/12/04 12:55:53;;;;;;;19.43;16.43;;;8.70;99.90;;;;;;5084268;28;20472;-44
2022/12/04 12:58:41;;;;;;;22.17;16.90;;;8.40;99.90;;;;;;5118021;28;20458;-42
2022/12/04 13:01:18;;;;;;;24.90;18.60;;;8.10;99.90;;;;;;5115762;28;20792;-41
2022/12/04 13:04:02;;;;;;;22.23;17.10;;;7.80;56.90;;;;;;5116639;28;20487;-41
2022/12/04 13:06:32;;;;;;;23.60;19.10;;;7.60;36.40;;;;;;5098693;28;20421;-39
2022/12/04 13:09:30;;;;;;;23.60;18.73;;;7.50;28.00;;;;;;5099158;28;20421;-41
2022/12/04 13:12:10;;;;;;;26.50;18.67;;;7.30;25.10;;;;;;5116385;28;20887;-42